Time;durP1;ratioP1;P1;durP2;ratioP2;P2;SDS_P1;SDS_P2;PMS_P1;PMS_P2;Temp;Humidity;BMP_temperature;BMP_pressure;BME280_temperature;BME280_humidity;BME280_pressure;Samples;Min_cycle;Max_cycle;Signal;HPM_P1;HPM_P2
2022/04/16 00:02:19;;;;;;;883.07;816.67;;;5.90;99.90;;;;;;4998671;28;20621;-81
2022/04/16 00:04:46;;;;;;;887.13;819.97;;;5.70;99.90;;;;;;4999000;28;20454;-82
2022/04/16 00:07:13;;;;;;;892.40;822.83;;;5.80;99.90;;;;;;4998796;28;20458;-82
2022/04/16 00:09:41;;;;;;;895.37;825.10;;;5.80;99.90;;;;;;4998118;28;20528;-82
2022/04/16 00:12:09;;;;;;;921.03;850.97;;;5.80;99.90;;;;;;4998680;28;20461;-82
2022/04/16 00:14:38;;;;;;;938.57;864.13;;;5.60;99.90;;;;;;4997697;28;20501;-83
2022/04/16 00:17:06;;;;;;;922.57;848.47;;;5.60;99.90;;;;;;4999833;28;20505;-82
2022/04/16 00:19:33;;;;;;;917.57;842.37;;;5.60;99.90;;;;;;4997884;28;20482;-81
2022/04/16 00:22:00;;;;;;;931.70;853.70;;;5.50;99.90;;;;;;4997966;28;20454;-82
2022/04/16 00:24:28;;;;;;;894.70;817.40;;;5.60;99.90;;;;;;4998070;28;20834;-81
2022/04/16 00:26:54;;;;;;;872.03;794.83;;;5.40;99.90;;;;;;4997940;28;20457;-81
2022/04/16 00:29:21;;;;;;;856.27;781.73;;;5.60;99.90;;;;;;4997757;28;20473;-82
2022/04/16 00:31:48;;;;;;;865.77;795.10;;;5.60;99.90;;;;;;4998275;28;20478;-81
2022/04/16 00:34:16;;;;;;;873.40;801.80;;;5.70;99.90;;;;;;4998116;28;20454;-82
2022/04/16 00:36:44;;;;;;;883.43;812.40;;;5.80;99.90;;;;;;4998520;28;20463;-81
2022/04/16 00:39:11;;;;;;;882.60;811.77;;;5.80;99.90;;;;;;4997593;28;20505;-83
2022/04/16 00:41:39;;;;;;;876.53;806.13;;;5.80;99.90;;;;;;4998144;28;20450;-81
2022/04/16 00:44:06;;;;;;;876.40;807.60;;;5.70;99.90;;;;;;4997717;28;20963;-81
2022/04/16 00:46:33;;;;;;;888.87;817.27;;;5.70;99.90;;;;;;4998004;28;20461;-82
2022/04/16 00:49:00;;;;;;;884.50;813.50;;;5.60;99.90;;;;;;4997007;28;20543;-82
2022/04/16 00:51:29;;;;;;;890.00;816.80;;;5.30;99.90;;;;;;4998213;28;20483;-82
2022/04/16 00:53:56;;;;;;;875.30;800.20;;;5.20;99.90;;;;;;4998091;28;20959;-82
2022/04/16 00:56:23;;;;;;;882.43;805.60;;;5.40;99.90;;;;;;4998298;28;20977;-82
2022/04/16 00:58:50;;;;;;;882.00;805.83;;;5.20;99.90;;;;;;4995675;28;20533;-83
2022/04/16 01:01:16;;;;;;;885.77;806.23;;;5.10;99.90;;;;;;4996910;28;20458;-82
2022/04/16 01:03:45;;;;;;;888.70;810.70;;;5.00;99.90;;;;;;4998061;28;20951;-82
2022/04/16 01:06:14;;;;;;;900.73;821.33;;;5.10;99.90;;;;;;4998191;28;20839;-82
2022/04/16 01:08:44;;;;;;;891.53;812.90;;;5.20;99.90;;;;;;4997307;28;20478;-82
2022/04/16 01:11:10;;;;;;;888.97;811.03;;;5.30;99.90;;;;;;4997097;28;20478;-82
2022/04/16 01:13:37;;;;;;;902.97;824.70;;;5.20;99.90;;;;;;4997925;28;20458;-82
2022/04/16 01:16:05;;;;;;;905.50;826.13;;;5.00;99.90;;;;;;4997539;28;20882;-81
2022/04/16 01:18:32;;;;;;;899.00;819.50;;;4.90;99.90;;;;;;4997768;28;20856;-82
2022/04/16 01:20:59;;;;;;;898.20;817.60;;;4.80;99.90;;;;;;4997733;28;20462;-83
2022/04/16 01:23:28;;;;;;;895.90;815.30;;;4.80;99.90;;;;;;4998113;28;20461;-82
2022/04/16 01:25:55;;;;;;;895.93;815.37;;;4.70;99.90;;;;;;4997256;28;20457;-82
2022/04/16 01:28:22;;;;;;;894.93;814.10;;;4.60;99.90;;;;;;4996899;28;20501;-82
2022/04/16 01:30:49;;;;;;;892.53;809.03;;;4.60;99.90;;;;;;4997236;28;20544;-82
2022/04/16 01:33:17;;;;;;;907.90;823.57;;;4.50;99.90;;;;;;4997550;28;20498;-82
2022/04/16 01:35:44;;;;;;;904.53;820.07;;;4.50;99.90;;;;;;4997533;28;20490;-82
2022/04/16 01:38:11;;;;;;;897.57;813.50;;;4.40;99.90;;;;;;4996635;28;20473;-83
2022/04/16 01:40:39;;;;;;;897.43;810.60;;;4.40;99.90;;;;;;5032128;23;20489;-81
2022/04/16 01:43:06;;;;;;;898.20;811.20;;;4.40;99.90;;;;;;5013053;28;20449;-80
2022/04/16 01:45:33;;;;;;;902.83;816.10;;;4.40;99.90;;;;;;5012713;28;20986;-80
2022/04/16 01:48:00;;;;;;;896.73;811.37;;;4.30;99.90;;;;;;5012510;28;20457;-80
2022/04/16 01:50:28;;;;;;;889.43;803.63;;;4.10;99.90;;;;;;5012462;28;20481;-82
2022/04/16 01:52:55;;;;;;;898.83;811.70;;;4.10;99.90;;;;;;5013046;28;20871;-83
2022/04/16 01:55:22;;;;;;;921.97;832.50;;;4.00;99.90;;;;;;5013048;28;20816;-80
2022/04/16 01:57:50;;;;;;;929.63;837.83;;;4.10;99.90;;;;;;5011367;28;20459;-80
2022/04/16 02:00:19;;;;;;;923.30;831.70;;;4.20;99.90;;;;;;5011865;28;21013;-80
2022/04/16 02:02:46;;;;;;;923.17;832.70;;;4.20;99.90;;;;;;5012956;28;20449;-81
2022/04/16 02:05:13;;;;;;;922.33;832.43;;;4.20;99.90;;;;;;5012504;28;20459;-80
2022/04/16 02:07:42;;;;;;;927.40;836.80;;;4.20;99.90;;;;;;5012639;28;20464;-79
2022/04/16 02:10:12;;;;;;;934.73;845.63;;;4.20;99.90;;;;;;5011532;28;20470;-80
2022/04/16 02:12:39;;;;;;;949.73;858.47;;;4.20;99.90;;;;;;5013713;28;20460;-81
2022/04/16 02:15:08;;;;;;;955.13;863.23;;;4.20;99.90;;;;;;5016897;28;20456;-80
2022/04/16 02:17:36;;;;;;;946.03;855.67;;;4.20;99.90;;;;;;5016645;28;20461;-81
2022/04/16 02:20:06;;;;;;;955.53;864.33;;;4.10;99.90;;;;;;5015555;28;20472;-81
2022/04/16 02:22:39;;;;;;;968.10;874.20;;;4.10;99.90;;;;;;5016863;28;20565;-79
2022/04/16 02:25:08;;;;;;;981.93;887.03;;;4.10;99.90;;;;;;5016246;28;20457;-80
2022/04/16 02:27:35;;;;;;;978.43;882.70;;;4.00;99.90;;;;;;5016505;28;20461;-80
2022/04/16 02:30:02;;;;;;;989.23;893.53;;;4.00;99.90;;;;;;5015286;28;20484;-80
2022/04/16 02:32:31;;;;;;;974.77;880.97;;;4.00;99.90;;;;;;5015865;28;20449;-80
2022/04/16 02:34:58;;;;;;;971.47;877.80;;;3.90;99.90;;;;;;5016154;28;20935;-81
2022/04/16 02:37:24;;;;;;;972.67;879.27;;;3.80;99.90;;;;;;5015900;28;20984;-80
2022/04/16 02:39:51;;;;;;;957.63;865.03;;;3.60;99.90;;;;;;5015080;28;20480;-80
2022/04/16 02:42:18;;;;;;;973.13;878.77;;;3.70;99.90;;;;;;5016218;28;20818;-81
2022/04/16 02:47:31;;;;;;;965.63;874.03;;;3.70;99.90;;;;;;5015816;28;20417;-80
2022/04/16 02:49:57;;;;;;;958.33;866.70;;;3.50;99.90;;;;;;5014776;28;20892;-80
2022/04/16 02:52:25;;;;;;;963.63;871.60;;;3.50;99.90;;;;;;5015902;28;20485;-80
2022/04/16 02:54:52;;;;;;;959.60;868.67;;;3.40;99.90;;;;;;5015967;28;20491;-80
2022/04/16 02:57:19;;;;;;;962.50;869.97;;;3.40;99.90;;;;;;5015593;28;20954;-81
2022/04/16 02:59:47;;;;;;;953.90;861.73;;;3.30;99.90;;;;;;5014085;28;20477;-81
2022/04/16 03:02:13;;;;;;;963.83;871.23;;;3.30;99.90;;;;;;5015787;28;20539;-80
2022/04/16 03:04:41;;;;;;;964.00;871.27;;;3.30;99.90;;;;;;5015763;28;20461;-80
2022/04/16 03:07:08;;;;;;;977.40;881.07;;;3.20;99.90;;;;;;5015596;28;20507;-80
2022/04/16 03:09:35;;;;;;;993.67;895.90;;;3.20;99.90;;;;;;5014577;28;20484;-80
2022/04/16 03:12:03;;;;;;;986.23;890.93;;;3.30;99.90;;;;;;5015275;28;21009;-80
2022/04/16 03:19:59;;;;;;;990.83;894.93;;;3.20;99.90;;;;;;5014463;28;20612;-80
2022/04/16 03:22:25;;;;;;;991.33;895.10;;;3.00;99.90;;;;;;5015129;28;20449;-80
2022/04/16 03:24:52;;;;;;;1002.37;906.33;;;3.00;99.90;;;;;;5014067;28;20460;-80
2022/04/16 03:27:19;;;;;;;1014.17;917.27;;;3.20;99.90;;;;;;5015343;28;20453;-80
2022/04/16 03:29:46;;;;;;;1013.33;916.03;;;3.10;99.90;;;;;;5013694;28;21009;-81
2022/04/16 03:32:12;;;;;;;1016.10;919.10;;;3.10;99.90;;;;;;5014956;28;20491;-82
2022/04/16 03:34:40;;;;;;;1025.23;927.47;;;3.10;99.90;;;;;;5015047;28;20457;-80
2022/04/16 03:37:08;;;;;;;1037.90;936.90;;;3.00;99.90;;;;;;5014994;28;20461;-81
2022/04/16 03:39:35;;;;;;;1028.43;931.23;;;3.10;99.90;;;;;;5013883;28;20485;-81
2022/04/16 03:42:01;;;;;;;1029.83;932.03;;;3.10;99.90;;;;;;5015081;28;20456;-81
2022/04/16 03:44:28;;;;;;;1034.40;937.00;;;3.20;99.90;;;;;;5014956;28;20954;-81
2022/04/16 03:46:55;;;;;;;1041.03;940.73;;;3.10;99.90;;;;;;5013647;28;20464;-81
2022/04/16 03:49:21;;;;;;;1044.63;943.30;;;3.10;99.90;;;;;;5013985;28;20990;-81
2022/04/16 03:51:48;;;;;;;1046.43;947.40;;;3.00;99.90;;;;;;5014569;28;20477;-80
2022/04/16 04:00:00;;;;;;;1034.53;939.97;;;3.00;99.90;;;;;;5014077;28;20875;-81
2022/04/16 04:02:27;;;;;;;1025.37;932.80;;;2.90;99.90;;;;;;5014253;28;20457;-80
2022/04/16 04:04:54;;;;;;;1019.10;926.97;;;2.70;99.90;;;;;;5014600;28;20481;-81
2022/04/16 04:07:21;;;;;;;1018.27;926.17;;;2.60;99.90;;;;;;5014393;28;20461;-81
2022/04/16 04:09:49;;;;;;;1019.30;926.50;;;2.60;99.90;;;;;;5013735;28;20491;-80
2022/04/16 04:12:16;;;;;;;1012.13;919.80;;;2.50;99.90;;;;;;5013793;28;20477;-80
2022/04/16 04:14:44;;;;;;;1016.90;924.30;;;2.60;99.90;;;;;;5014447;28;20449;-80
2022/04/16 04:17:12;;;;;;;1013.70;920.83;;;2.50;99.90;;;;;;5014248;28;20484;-80
2022/04/16 04:19:40;;;;;;;1010.60;918.43;;;2.40;99.90;;;;;;5013540;28;20482;-80
2022/04/16 04:22:08;;;;;;;1019.13;923.30;;;2.40;99.90;;;;;;5014235;28;20484;-81
2022/04/16 04:24:36;;;;;;;1026.07;927.53;;;2.40;99.90;;;;;;5014188;28;20990;-80
2022/04/16 04:27:06;;;;;;;1030.97;933.43;;;2.50;99.90;;;;;;5013955;28;20638;-80
2022/04/16 04:29:33;;;;;;;1036.63;937.80;;;2.70;99.90;;;;;;5013322;28;20954;-80
2022/04/16 04:32:00;;;;;;;1040.13;941.73;;;2.70;99.90;;;;;;5014070;28;20480;-82
2022/04/16 04:34:27;;;;;;;1034.57;936.93;;;2.70;99.90;;;;;;5013951;28;20457;-80
2022/04/16 04:36:53;;;;;;;1040.50;942.20;;;2.70;99.90;;;;;;5013440;28;20457;-80
2022/04/16 04:39:20;;;;;;;1032.47;935.77;;;2.70;99.90;;;;;;5013069;28;20488;-81
2022/04/16 04:41:47;;;;;;;1025.00;929.57;;;2.70;99.90;;;;;;5013733;28;20480;-81
2022/04/16 04:44:16;;;;;;;1030.30;934.90;;;2.60;99.90;;;;;;5013769;28;20457;-80
2022/04/16 04:46:43;;;;;;;1030.87;934.33;;;2.60;99.90;;;;;;5012937;28;20452;-81
2022/04/16 04:49:11;;;;;;;1024.17;926.93;;;2.60;99.90;;;;;;5012484;28;20476;-80
2022/04/16 04:51:38;;;;;;;1021.37;923.27;;;2.60;99.90;;;;;;5013114;28;20477;-82
2022/04/16 04:54:05;;;;;;;1015.00;915.33;;;2.80;99.90;;;;;;5011056;28;20464;-83
2022/04/16 04:56:32;;;;;;;1011.97;913.43;;;3.00;99.90;;;;;;5013148;28;20461;-81
2022/04/16 04:58:59;;;;;;;1028.20;929.77;;;3.10;99.90;;;;;;5010970;28;21016;-83
2022/04/16 05:01:27;;;;;;;1030.57;932.10;;;3.10;99.90;;;;;;5012503;28;20619;-81
2022/04/16 05:03:54;;;;;;;1032.87;933.70;;;3.30;99.90;;;;;;5013572;28;20457;-81
2022/04/16 05:06:20;;;;;;;1024.70;926.57;;;3.20;99.90;;;;;;5011228;28;20464;-81
2022/04/16 05:08:47;;;;;;;1026.63;929.80;;;3.00;99.90;;;;;;5012375;28;20468;-81
2022/04/16 05:11:14;;;;;;;1030.37;934.30;;;3.10;99.90;;;;;;5013046;28;20477;-82
2022/04/16 05:13:41;;;;;;;1027.20;930.00;;;3.00;99.90;;;;;;5011330;28;20457;-81
2022/04/16 05:16:08;;;;;;;1015.47;919.53;;;3.00;99.90;;;;;;5012862;28;20465;-80
2022/04/16 05:18:36;;;;;;;1015.33;920.03;;;3.00;99.90;;;;;;5011866;28;20523;-82
2022/04/16 05:21:03;;;;;;;1009.47;913.17;;;2.90;99.90;;;;;;5011567;28;20457;-83
2022/04/16 05:23:29;;;;;;;1003.77;908.47;;;3.00;99.90;;;;;;5013359;28;20457;-82
2022/04/16 05:25:56;;;;;;;984.80;895.87;;;3.30;99.90;;;;;;5012379;28;20450;-82
2022/04/16 05:28:23;;;;;;;955.17;870.73;;;3.60;99.90;;;;;;5010855;28;20464;-82
2022/04/16 05:30:54;;;;;;;944.17;861.43;;;3.70;99.90;;;;;;5012826;28;20473;-82
2022/04/16 05:36:07;;;;;;;955.73;871.70;;;3.90;99.90;;;;;;5012642;28;20437;-83
2022/04/16 05:38:34;;;;;;;960.80;873.53;;;4.00;99.90;;;;;;5011777;28;20458;-80
2022/04/16 05:41:01;;;;;;;979.10;889.23;;;3.90;99.90;;;;;;5013004;28;20817;-81
2022/04/16 05:43:28;;;;;;;985.67;893.17;;;4.00;99.90;;;;;;5013351;28;20460;-81
2022/04/16 05:45:55;;;;;;;996.93;901.90;;;3.90;99.90;;;;;;5009926;28;20453;-82
2022/04/16 05:48:22;;;;;;;996.70;900.07;;;4.10;99.90;;;;;;4991172;28;20457;-80
2022/04/16 05:50:48;;;;;;;975.00;876.43;;;4.20;99.90;;;;;;4992578;28;20987;-81
2022/04/16 05:53:17;;;;;;;967.87;869.33;;;4.30;99.90;;;;;;4992732;28;20481;-81
2022/04/16 05:55:47;;;;;;;986.63;886.90;;;4.50;99.90;;;;;;4992815;28;20469;-81
2022/04/16 05:58:15;;;;;;;995.47;893.77;;;4.50;99.90;;;;;;4992368;28;20450;-81
2022/04/16 06:00:42;;;;;;;980.23;878.97;;;4.70;99.90;;;;;;4992836;28;20473;-80
2022/04/16 06:03:08;;;;;;;986.03;884.87;;;4.80;99.90;;;;;;4992222;28;20458;-82
2022/04/16 06:05:35;;;;;;;1014.28;909.30;;;5.00;99.90;;;;;;4991869;28;20460;-81
2022/04/16 06:08:03;;;;;;;988.93;888.40;;;5.10;99.90;;;;;;4991798;28;20202;-80
2022/04/16 06:10:31;;;;;;;992.80;892.70;;;5.50;99.90;;;;;;4992400;28;20474;-81
2022/04/16 06:12:58;;;;;;;995.30;896.13;;;5.60;99.90;;;;;;4992073;28;20489;-80
2022/04/16 06:15:25;;;;;;;975.33;881.67;;;6.00;99.90;;;;;;4993348;28;20465;-81
2022/04/16 06:17:52;;;;;;;964.37;873.90;;;6.30;99.90;;;;;;4993493;28;20489;-81
2022/04/16 06:20:19;;;;;;;955.93;865.77;;;6.40;99.90;;;;;;4992105;28;20502;-81
2022/04/16 06:22:45;;;;;;;938.43;850.53;;;6.70;99.90;;;;;;4992841;28;20458;-80
2022/04/16 06:25:14;;;;;;;918.93;835.10;;;6.90;99.90;;;;;;4992659;28;20481;-81
2022/04/16 06:27:42;;;;;;;903.87;821.30;;;7.20;99.90;;;;;;4992740;28;20457;-81
2022/04/16 06:30:11;;;;;;;886.20;804.60;;;7.30;99.90;;;;;;4992235;28;20476;-81
2022/04/16 06:32:38;;;;;;;899.27;815.43;;;7.40;99.90;;;;;;4993782;28;20473;-81
2022/04/16 06:35:06;;;;;;;875.70;795.37;;;7.60;99.90;;;;;;4994367;28;20461;-81
2022/04/16 06:37:33;;;;;;;861.20;782.00;;;7.90;99.90;;;;;;4993911;28;20850;-83
2022/04/16 06:40:00;;;;;;;841.30;765.60;;;7.90;99.90;;;;;;4992001;28;20488;-81
2022/04/16 06:42:27;;;;;;;842.97;770.53;;;8.10;99.90;;;;;;4993271;28;20495;-83
2022/04/16 06:44:56;;;;;;;851.77;783.13;;;8.30;99.90;;;;;;4993216;28;20868;-81
2022/04/16 06:47:23;;;;;;;845.67;783.10;;;8.40;99.90;;;;;;4993586;28;20465;-81
2022/04/16 06:49:49;;;;;;;814.57;762.23;;;8.60;99.90;;;;;;4991983;28;21026;-81
2022/04/16 06:52:18;;;;;;;761.00;715.93;;;8.70;99.90;;;;;;4992850;28;20872;-81
2022/04/16 06:54:46;;;;;;;591.97;562.57;;;8.90;99.90;;;;;;4993491;28;20458;-84
2022/04/16 06:57:13;;;;;;;411.90;393.20;;;9.10;99.90;;;;;;4993144;28;20450;-81
2022/04/16 06:59:40;;;;;;;424.60;406.40;;;9.00;99.90;;;;;;4993327;28;20478;-84
2022/04/16 07:02:09;;;;;;;326.97;313.23;;;9.20;99.90;;;;;;4996369;28;20458;-81
2022/04/16 07:04:36;;;;;;;147.20;140.27;;;9.30;99.90;;;;;;4996173;28;20462;-81
2022/04/16 07:07:04;;;;;;;98.87;92.83;;;9.40;99.90;;;;;;4995855;28;20462;-81
2022/04/16 07:09:30;;;;;;;77.87;72.63;;;9.50;99.90;;;;;;4995345;28;20484;-82
2022/04/16 07:11:57;;;;;;;64.57;59.77;;;9.60;99.90;;;;;;4996135;28;20478;-81
2022/04/16 07:14:24;;;;;;;60.23;55.60;;;9.80;99.90;;;;;;4994873;28;20458;-81
2022/04/16 07:16:51;;;;;;;35.47;31.50;;;9.80;99.90;;;;;;4995543;28;20473;-84
2022/04/16 07:19:19;;;;;;;30.50;22.43;;;10.00;99.90;;;;;;4994945;28;20481;-82
2022/04/16 07:21:45;;;;;;;29.30;22.43;;;10.20;99.90;;;;;;4995758;28;20458;-81
2022/04/16 07:24:12;;;;;;;27.20;20.40;;;10.20;99.90;;;;;;4995648;28;20458;-81
2022/04/16 07:26:39;;;;;;;26.57;19.50;;;10.20;98.80;;;;;;4996005;28;20577;-81
2022/04/16 07:29:05;;;;;;;23.97;18.20;;;10.40;97.10;;;;;;4994482;28;20485;-82
2022/04/16 07:31:32;;;;;;;25.90;19.53;;;10.40;95.20;;;;;;4995698;28;20544;-81
2022/04/16 07:33:59;;;;;;;24.57;19.40;;;10.60;94.60;;;;;;4995164;28;20477;-81
2022/04/16 07:36:27;;;;;;;22.83;16.37;;;10.60;93.40;;;;;;4996522;28;20847;-82
2022/04/16 07:41:24;;;;;;;23.50;18.67;;;10.80;90.30;;;;;;5037421;23;20493;-82
2022/04/16 07:43:51;;;;;;;23.80;18.70;;;10.80;87.40;;;;;;5017416;28;20862;-82
2022/04/16 07:46:21;;;;;;;21.03;17.07;;;11.00;88.10;;;;;;5018429;28;20449;-82
2022/04/16 07:48:48;;;;;;;24.20;17.97;;;11.00;84.00;;;;;;5017617;28;20445;-81
2022/04/16 07:51:15;;;;;;;22.70;16.50;;;11.10;83.50;;;;;;5018296;28;20480;-82
2022/04/16 07:53:43;;;;;;;23.30;17.87;;;11.30;85.00;;;;;;5018414;28;20485;-82
2022/04/16 07:56:09;;;;;;;24.93;17.00;;;11.50;84.80;;;;;;5018303;28;20457;-82
2022/04/16 07:58:36;;;;;;;24.07;17.23;;;11.80;81.00;;;;;;5017520;28;20460;-82
2022/04/16 08:01:03;;;;;;;22.13;17.60;;;12.20;74.30;;;;;;5018338;28;20477;-82
2022/04/16 08:03:30;;;;;;;21.40;17.40;;;12.40;72.50;;;;;;5018027;28;20449;-82
2022/04/16 08:05:56;;;;;;;26.73;16.87;;;12.70;69.00;;;;;;5016507;28;20958;-83
2022/04/16 08:08:23;;;;;;;20.23;15.97;;;13.00;66.20;;;;;;5018265;28;20484;-83
2022/04/16 08:10:53;;;;;;;21.80;17.43;;;13.10;66.90;;;;;;5017079;28;20476;-83
2022/04/16 08:13:19;;;;;;;21.13;15.70;;;13.60;64.30;;;;;;5016749;28;20477;-82
2022/04/16 08:15:46;;;;;;;22.83;16.60;;;13.90;58.30;;;;;;5017940;28;20466;-82
2022/04/16 08:18:13;;;;;;;23.07;16.40;;;14.10;56.40;;;;;;5017235;28;20466;-82
2022/04/16 08:20:40;;;;;;;21.00;15.93;;;14.20;56.40;;;;;;5017813;28;20866;-82
2022/04/16 08:23:07;;;;;;;19.00;15.33;;;14.40;53.90;;;;;;5017344;28;20459;-82
2022/04/16 08:25:46;;;;;;;19.00;14.87;;;14.50;49.50;;;;;;5016346;28;20453;-82
2022/04/16 08:28:15;;;;;;;18.47;14.30;;;14.60;48.20;;;;;;5016460;28;20453;-82
2022/04/16 08:30:42;;;;;;;20.83;14.70;;;14.80;44.90;;;;;;5017022;28;20477;-83
2022/04/16 08:33:14;;;;;;;17.90;14.27;;;15.00;44.70;;;;;;5018306;28;20486;-82
2022/04/16 08:35:42;;;;;;;23.10;15.40;;;15.20;45.70;;;;;;5018351;28;20670;-83
2022/04/16 08:38:11;;;;;;;19.73;16.43;;;15.20;44.60;;;;;;5018042;28;20958;-85
2022/04/16 08:40:38;;;;;;;17.70;15.37;;;15.10;44.40;;;;;;5013963;28;20512;-86
2022/04/16 08:43:07;;;;;;;18.20;14.23;;;15.30;41.30;;;;;;5016472;28;20452;-83
2022/04/16 08:45:37;;;;;;;16.97;14.27;;;15.50;38.50;;;;;;5017903;28;20513;-87
2022/04/16 08:48:04;;;;;;;17.20;12.83;;;15.80;39.80;;;;;;5017237;28;20479;-82
2022/04/16 08:50:32;;;;;;;15.87;11.37;;;16.00;33.80;;;;;;5015212;28;20803;-82
2022/04/16 08:52:59;;;;;;;17.83;13.83;;;15.90;31.40;;;;;;5015466;28;20570;-82
2022/04/16 08:55:28;;;;;;;13.93;10.80;;;16.00;31.70;;;;;;5016196;28;20458;-82
2022/04/16 08:57:56;;;;;;;15.07;11.80;;;16.50;26.20;;;;;;5016883;28;20459;-82
2022/04/16 09:00:23;;;;;;;12.00;10.13;;;16.70;26.50;;;;;;5014898;28;20992;-81
2022/04/16 09:02:56;;;;;;;13.03;10.57;;;16.50;24.50;;;;;;5016355;28;20456;-81
2022/04/16 09:05:24;;;;;;;12.77;10.13;;;16.80;22.50;;;;;;5016487;28;20491;-83
2022/04/16 09:07:53;;;;;;;15.40;11.00;;;16.60;22.90;;;;;;5016536;28;20513;-83
2022/04/16 09:10:20;;;;;;;12.40;8.90;;;16.50;21.70;;;;;;5015848;28;20475;-82
2022/04/16 09:12:51;;;;;;;12.97;9.97;;;16.60;23.50;;;;;;5016411;28;20485;-82
2022/04/16 09:15:18;;;;;;;11.00;7.47;;;17.10;23.90;;;;;;5018137;28;20456;-82
2022/04/16 09:17:56;;;;;;;11.47;7.80;;;16.70;20.90;;;;;;5016076;28;20960;-82
2022/04/16 09:20:31;;;;;;;12.70;9.20;;;17.50;19.40;;;;;;5015969;28;20478;-83
2022/04/16 09:22:57;;;;;;;12.97;9.73;;;17.30;17.80;;;;;;5015345;28;20452;-83
2022/04/16 09:25:24;;;;;;;11.00;8.43;;;17.40;20.90;;;;;;5015665;28;20468;-82
2022/04/16 09:27:52;;;;;;;10.30;7.50;;;16.70;17.30;;;;;;5015395;28;20466;-82
2022/04/16 09:30:31;;;;;;;8.30;5.77;;;17.00;16.50;;;;;;5016189;28;20530;-82
2022/04/16 09:32:59;;;;;;;9.07;6.73;;;16.40;15.90;;;;;;5015398;28;20484;-82
2022/04/16 09:35:32;;;;;;;10.47;7.03;;;16.20;17.00;;;;;;5016584;28;20814;-82
2022/04/16 09:38:00;;;;;;;10.83;7.90;;;16.40;18.10;;;;;;5016225;28;20528;-82
2022/04/16 09:40:28;;;;;;;11.13;8.23;;;16.20;18.80;;;;;;5015419;28;20495;-82
2022/04/16 09:42:57;;;;;;;13.00;7.63;;;16.90;17.50;;;;;;5015757;28;20463;-82
2022/04/16 09:45:23;;;;;;;12.93;7.60;;;17.60;15.80;;;;;;5016147;28;20459;-83
2022/04/16 09:47:52;;;;;;;10.43;7.53;;;17.70;13.20;;;;;;5017421;28;20463;-83
2022/04/16 09:50:20;;;;;;;9.97;6.37;;;18.20;12.80;;;;;;5013790;28;20852;-83
2022/04/16 09:52:52;;;;;;;12.40;7.23;;;18.40;10.00;;;;;;5015461;28;20856;-83
2022/04/16 09:55:21;;;;;;;11.03;7.10;;;17.50;10.40;;;;;;5017813;28;20512;-82
2022/04/16 09:57:51;;;;;;;9.27;6.90;;;17.80;10.60;;;;;;5016497;28;20458;-83
2022/04/16 10:00:18;;;;;;;11.63;7.93;;;17.70;8.60;;;;;;5014242;28;20996;-82
2022/04/16 10:02:46;;;;;;;9.70;7.60;;;18.10;9.40;;;;;;5017182;28;20447;-83
2022/04/16 10:05:13;;;;;;;9.50;6.37;;;18.10;10.50;;;;;;5015420;28;20482;-82
2022/04/16 10:07:40;;;;;;;8.80;6.73;;;18.50;9.70;;;;;;5015136;28;20457;-83
2022/04/16 10:10:17;;;;;;;12.87;6.70;;;18.30;7.30;;;;;;5014224;28;20541;-83
2022/04/16 10:13:03;;;;;;;9.93;7.30;;;18.80;8.30;;;;;;5015667;28;20489;-83
2022/04/16 10:15:44;;;;;;;7.57;5.70;;;19.10;8.00;;;;;;5016677;28;20885;-82
2022/04/16 10:18:12;;;;;;;8.30;5.90;;;19.80;3.10;;;;;;5015130;28;20458;-84
2022/04/16 10:20:49;;;;;;;8.93;6.03;;;20.30;1.00;;;;;;5015256;28;21038;-82
2022/04/16 10:23:25;;;;;;;9.57;5.50;;;20.20;1.00;;;;;;5016001;28;20476;-83
2022/04/16 10:26:01;;;;;;;8.90;5.70;;;20.20;1.00;;;;;;5016634;28;20463;-82
2022/04/16 10:28:34;;;;;;;12.80;5.70;;;20.20;1.00;;;;;;5013676;28;21101;-84
2022/04/16 10:31:01;;;;;;;7.23;4.47;;;20.70;1.00;;;;;;5016703;28;20477;-83
2022/04/16 10:33:29;;;;;;;6.57;4.07;;;21.10;1.00;;;;;;5016632;28;20875;-83
2022/04/16 10:35:58;;;;;;;6.67;4.27;;;21.20;1.00;;;;;;5018396;28;20455;-82
2022/04/16 10:38:27;;;;;;;6.80;4.17;;;20.70;1.00;;;;;;5018957;28;20541;-82
2022/04/16 10:40:58;;;;;;;7.63;4.17;;;20.30;1.00;;;;;;5019240;28;20836;-83
2022/04/16 10:43:28;;;;;;;6.00;3.40;;;20.90;1.00;;;;;;5019767;28;20489;-82
2022/04/16 10:46:01;;;;;;;6.33;3.60;;;20.90;1.00;;;;;;5020757;28;20451;-83
2022/04/16 10:48:29;;;;;;;7.27;4.50;;;21.00;1.00;;;;;;5016538;28;20461;-83
2022/04/16 10:50:58;;;;;;;13.00;4.43;;;21.30;1.00;;;;;;5017227;28;20473;-83
2022/04/16 10:53:32;;;;;;;6.50;3.50;;;21.00;1.00;;;;;;5019169;28;20490;-84
2022/04/16 10:56:10;;;;;;;8.03;3.70;;;21.50;1.00;;;;;;5018906;28;20886;-83
2022/04/16 10:58:37;;;;;;;5.47;3.40;;;21.10;1.00;;;;;;5018820;28;20460;-83
2022/04/16 11:01:08;;;;;;;8.10;3.47;;;20.30;1.00;;;;;;5018729;28;20705;-83
2022/04/16 11:03:44;;;;;;;7.20;3.20;;;20.50;1.00;;;;;;5018973;28;20469;-83
2022/04/16 11:06:11;;;;;;;5.80;3.60;;;20.00;1.00;;;;;;5019272;28;20508;-82
2022/04/16 11:08:40;;;;;;;6.80;3.40;;;20.20;1.00;;;;;;5018404;28;20457;-83
2022/04/16 11:11:08;;;;;;;6.97;3.70;;;21.10;1.00;;;;;;5018974;28;20479;-83
2022/04/16 11:13:36;;;;;;;6.87;3.73;;;20.90;1.00;;;;;;5018066;28;20962;-83
2022/04/16 11:16:03;;;;;;;6.50;4.20;;;21.20;1.00;;;;;;5017379;28;20464;-83
2022/04/16 11:18:38;;;;;;;7.20;4.30;;;20.50;1.00;;;;;;5018996;28;20453;-83
2022/04/16 11:21:09;;;;;;;8.70;3.50;;;21.20;1.00;;;;;;5017587;28;20538;-83
2022/04/16 11:23:41;;;;;;;5.90;3.30;;;20.50;1.00;;;;;;5022032;28;20476;-83
2022/04/16 11:34:30;;;;;;;18.07;11.77;;;21.80;1.00;;;;;;5025027;28;20480;-82
2022/04/16 11:36:58;;;;;;;7.80;4.97;;;21.80;1.00;;;;;;5026464;28;20511;-84
2022/04/16 11:39:27;;;;;;;6.93;3.47;;;22.00;1.00;;;;;;5021432;28;20833;-83
2022/04/16 11:41:56;;;;;;;6.43;3.50;;;20.90;1.00;;;;;;5022072;28;20453;-83
2022/04/16 11:44:45;;;;;;;6.63;4.20;;;21.00;1.00;;;;;;5020769;28;20480;-83
2022/04/16 11:47:13;;;;;;;7.00;3.30;;;21.30;1.00;;;;;;5014622;28;20459;-81
2022/04/16 11:49:42;;;;;;;5.43;3.23;;;21.50;1.00;;;;;;5017467;28;20476;-84
2022/04/16 11:52:10;;;;;;;7.43;3.50;;;22.80;1.00;;;;;;5020226;28;20452;-84
2022/04/16 11:54:37;;;;;;;8.20;3.60;;;23.50;1.00;;;;;;5018744;28;20507;-87
2022/04/16 11:57:06;;;;;;;6.43;3.22;;;23.00;1.00;;;;;;5021182;28;20454;-84
2022/04/16 11:59:33;;;;;;;5.40;3.20;;;22.70;1.00;;;;;;5018329;28;20218;-82
2022/04/16 12:02:04;;;;;;;5.70;3.27;;;21.80;1.00;;;;;;5019712;28;20814;-82
2022/04/16 12:04:36;;;;;;;6.17;3.57;;;22.40;1.00;;;;;;5020134;28;20477;-86
2022/04/16 12:07:03;;;;;;;6.40;3.53;;;22.60;1.00;;;;;;5019754;28;20464;-80
2022/04/16 12:09:32;;;;;;;9.40;3.80;;;22.40;1.00;;;;;;5018070;28;20473;-83
2022/04/16 12:12:00;;;;;;;5.40;2.90;;;22.00;1.00;;;;;;5017575;28;20511;-84
2022/04/16 12:14:29;;;;;;;5.10;2.67;;;22.60;1.00;;;;;;5017345;28;20453;-83
2022/04/16 12:17:00;;;;;;;5.63;3.43;;;23.30;1.00;;;;;;5017450;28;20846;-83
2022/04/16 12:19:31;;;;;;;5.73;2.70;;;23.70;1.00;;;;;;5015838;28;20472;-83
2022/04/16 12:21:58;;;;;;;6.43;3.47;;;24.00;1.00;;;;;;5018946;28;20491;-83
2022/04/16 12:24:28;;;;;;;6.10;3.63;;;23.90;1.00;;;;;;5018927;28;20499;-84
2022/04/16 12:26:56;;;;;;;5.80;3.10;;;23.80;1.00;;;;;;5019232;28;20459;-83
2022/04/16 12:29:30;;;;;;;6.07;3.23;;;24.00;1.00;;;;;;5017375;28;20481;-83
2022/04/16 12:31:58;;;;;;;5.50;2.87;;;25.00;1.00;;;;;;5020457;28;21038;-84
2022/04/16 12:34:25;;;;;;;6.10;3.70;;;25.90;1.00;;;;;;5020078;28;20489;-84
2022/04/16 12:36:52;;;;;;;7.10;3.93;;;26.00;1.00;;;;;;5019782;28;20453;-84
2022/04/16 12:39:19;;;;;;;6.53;2.90;;;25.50;1.00;;;;;;5018123;28;20456;-84
2022/04/16 12:41:45;;;;;;;5.83;3.67;;;24.00;1.00;;;;;;5019203;28;20456;-83
2022/04/16 12:44:12;;;;;;;6.30;3.10;;;23.50;1.00;;;;;;5017329;28;20522;-84
2022/04/16 12:46:40;;;;;;;5.67;3.27;;;23.30;1.00;;;;;;5018007;28;20453;-82
2022/04/16 12:49:07;;;;;;;6.03;3.30;;;23.30;1.00;;;;;;5016588;28;20460;-83
2022/04/16 12:51:34;;;;;;;5.87;3.47;;;23.60;1.00;;;;;;5018915;28;20463;-83
2022/04/16 12:54:01;;;;;;;6.33;3.07;;;23.50;1.00;;;;;;5017531;28;20449;-84
2022/04/16 12:56:28;;;;;;;5.90;3.73;;;23.80;1.00;;;;;;5018571;28;20445;-84
2022/04/16 12:58:55;;;;;;;5.80;3.30;;;23.40;1.00;;;;;;5016181;28;20464;-83
2022/04/16 13:01:21;;;;;;;5.67;3.43;;;23.00;1.00;;;;;;5016559;28;20484;-82